createdAt,value
2018-07-02T00:00:38.197Z,61.20
2018-07-02T00:01:42.280Z,61.20
2018-07-02T00:02:46.394Z,61.10
2018-07-02T00:03:50.494Z,61.20
2018-07-02T00:04:55.276Z,61.10
2018-07-02T00:06:10.630Z,61.40
2018-07-02T00:07:17.711Z,61.40
2018-07-02T00:08:21.897Z,61.20
2018-07-02T00:09:26.167Z,61.10
2018-07-02T00:10:30.237Z,61.20
2018-07-02T00:11:34.270Z,61.50
2018-07-02T00:12:38.512Z,61.70
2018-07-02T00:13:42.579Z,61.60
2018-07-02T00:14:47.603Z,61.70
2018-07-02T00:15:51.823Z,62.50
2018-07-02T00:16:55.846Z,62.20
2018-07-02T00:17:59.952Z,62.00
2018-07-02T00:19:04.023Z,61.80
2018-07-02T00:20:08.515Z,61.90
2018-07-02T00:22:16.549Z,62.40
2018-07-02T00:23:20.639Z,62.60
2018-07-02T00:24:24.704Z,62.80
2018-07-02T00:25:28.766Z,63.00
2018-07-02T00:26:32.828Z,62.80
2018-07-02T00:27:36.902Z,62.80
2018-07-02T00:28:40.931Z,62.50
2018-07-02T00:29:45.079Z,62.40
2018-07-02T00:30:49.134Z,62.40
2018-07-02T00:31:53.305Z,62.30
2018-07-02T00:32:57.393Z,62.20
2018-07-02T00:34:01.473Z,62.60
2018-07-02T00:35:05.867Z,62.60
2018-07-02T00:36:09.998Z,62.60
2018-07-02T00:37:15.202Z,63.00
2018-07-02T00:38:19.249Z,63.20
2018-07-02T00:39:23.315Z,63.20
2018-07-02T00:40:27.359Z,63.40
2018-07-02T00:41:31.450Z,63.20
2018-07-02T00:42:35.465Z,63.40
2018-07-02T00:43:39.552Z,63.60
2018-07-02T00:44:43.561Z,63.60
2018-07-02T00:45:47.652Z,63.60
2018-07-02T00:46:51.726Z,63.20
2018-07-02T00:47:55.769Z,63.20
2018-07-02T00:49:00.062Z,63.50
2018-07-02T00:50:04.579Z,63.80
2018-07-02T00:51:08.633Z,63.90
2018-07-02T00:52:12.774Z,63.90
2018-07-02T00:53:16.929Z,64.00
2018-07-02T00:54:21.023Z,64.20
2018-07-02T00:55:25.113Z,64.50
2018-07-02T00:56:29.392Z,65.40
2018-07-02T00:57:33.474Z,65.00
2018-07-02T00:58:37.573Z,65.30
2018-07-02T00:59:41.599Z,65.50
2018-07-02T01:00:45.708Z,65.80
2018-07-02T01:01:49.804Z,66.10
2018-07-02T01:02:53.862Z,66.20
2018-07-02T01:04:00.024Z,66.00
2018-07-02T01:05:04.117Z,66.30
2018-07-02T01:06:08.276Z,66.50
2018-07-02T01:07:12.364Z,66.80
2018-07-02T01:08:16.427Z,67.10
2018-07-02T01:09:20.471Z,67.10
2018-07-02T01:10:24.553Z,67.30
2018-07-02T01:11:28.721Z,67.50
2018-07-02T01:12:33.033Z,67.90
2018-07-02T01:13:37.105Z,68.40
2018-07-02T01:14:41.196Z,69.00
2018-07-02T01:15:45.248Z,69.30
2018-07-02T01:16:49.324Z,69.50
2018-07-02T01:17:53.349Z,69.70
2018-07-02T01:18:57.422Z,69.70
2018-07-02T01:20:01.536Z,69.80
2018-07-02T01:21:05.601Z,69.90
2018-07-02T01:22:09.639Z,70.30
2018-07-02T01:23:13.658Z,70.20
2018-07-02T01:24:17.885Z,70.00
2018-07-02T01:25:21.940Z,70.80
2018-07-02T01:26:26.058Z,70.70
2018-07-02T01:27:33.904Z,70.90
2018-07-02T01:28:37.935Z,71.00
2018-07-02T01:29:42.096Z,71.30
2018-07-02T01:30:46.110Z,71.80
2018-07-02T01:31:50.138Z,72.10
2018-07-02T01:32:54.317Z,72.40
2018-07-02T01:33:58.430Z,72.40
2018-07-02T01:35:02.450Z,72.40
2018-07-02T01:36:06.515Z,72.80
2018-07-02T01:37:10.555Z,73.00
2018-07-02T01:38:14.727Z,72.90
2018-07-02T01:39:18.780Z,72.70
2018-07-02T01:40:22.966Z,72.50
2018-07-02T01:41:27.051Z,72.50
2018-07-02T01:42:31.137Z,72.70
2018-07-02T01:43:35.216Z,72.60
2018-07-02T01:44:39.304Z,72.90
2018-07-02T01:45:43.328Z,73.20
2018-07-02T01:46:47.373Z,73.40
2018-07-02T01:47:51.392Z,73.50
2018-07-02T01:48:55.446Z,73.70
2018-07-02T01:49:59.590Z,73.70
2018-07-02T01:51:03.660Z,74.10
2018-07-02T01:52:07.669Z,74.10
2018-07-02T01:53:11.734Z,76.00
2018-07-02T01:54:15.887Z,76.50
2018-07-02T01:55:19.885Z,76.70
2018-07-02T01:56:24.045Z,77.10
2018-07-02T01:57:28.115Z,77.50
2018-07-02T01:59:35.804Z,77.50
2018-07-02T02:00:39.859Z,77.60
2018-07-02T02:01:43.907Z,77.70
2018-07-02T02:02:48.025Z,77.70
2018-07-02T02:03:52.073Z,77.40
2018-07-02T02:04:56.096Z,77.20
2018-07-02T02:06:00.204Z,77.20
2018-07-02T02:07:04.645Z,77.70
2018-07-02T02:08:08.743Z,78.10
2018-07-02T02:09:12.848Z,78.50
2018-07-02T02:10:17.006Z,78.70
2018-07-02T02:11:21.209Z,79.10
2018-07-02T02:12:25.263Z,79.80
2018-07-02T02:13:29.412Z,79.50
2018-07-02T02:14:33.442Z,80.60
2018-07-02T02:15:37.536Z,80.60
2018-07-02T02:16:41.562Z,80.80
2018-07-02T02:17:45.603Z,81.00
2018-07-02T02:18:49.697Z,81.30
2018-07-02T02:19:53.731Z,81.50
2018-07-02T02:20:57.887Z,81.40
2018-07-02T02:22:01.854Z,81.50
2018-07-02T02:23:05.937Z,81.60
2018-07-02T02:24:10.057Z,81.90
2018-07-02T02:25:14.101Z,82.10
2018-07-02T02:26:18.186Z,82.10
2018-07-02T02:27:22.204Z,81.90
2018-07-02T02:28:26.322Z,82.00
2018-07-02T02:29:30.427Z,82.00
2018-07-02T02:30:34.468Z,82.20
2018-07-02T02:31:38.514Z,82.70
2018-07-02T02:32:42.545Z,82.80
2018-07-02T02:33:46.606Z,82.80
2018-07-02T02:34:50.659Z,83.10
2018-07-02T02:35:54.670Z,84.00
2018-07-02T02:36:58.690Z,84.40
2018-07-02T02:38:02.722Z,84.00
2018-07-02T02:39:08.128Z,83.80
2018-07-02T02:40:12.181Z,83.80
2018-07-02T02:41:16.236Z,83.90
2018-07-02T02:42:20.284Z,84.00
2018-07-02T02:43:24.423Z,83.90
2018-07-02T02:44:28.489Z,84.30
2018-07-02T02:45:32.617Z,84.50
2018-07-02T02:46:36.939Z,84.70
2018-07-02T02:47:40.996Z,85.00
2018-07-02T02:49:48.779Z,85.50
2018-07-02T02:50:52.798Z,85.50
2018-07-02T02:51:56.868Z,85.50
2018-07-02T02:53:01.023Z,85.60
2018-07-02T02:54:05.136Z,85.70
2018-07-02T02:55:09.336Z,86.00
2018-07-02T02:56:13.448Z,86.10
2018-07-02T02:57:17.534Z,86.40
2018-07-02T02:58:21.604Z,86.80
2018-07-02T02:59:25.642Z,86.50
2018-07-02T03:00:29.975Z,87.00
2018-07-02T03:01:34.022Z,87.00
2018-07-02T03:02:38.058Z,87.10
2018-07-02T03:03:42.157Z,87.20
2018-07-02T03:04:46.359Z,87.40
2018-07-02T03:05:50.443Z,87.30
2018-07-02T03:06:54.674Z,87.60
2018-07-02T03:07:58.690Z,87.80
2018-07-02T03:09:03.036Z,88.10
2018-07-02T03:10:07.116Z,87.90
2018-07-02T03:11:11.265Z,87.80
2018-07-02T03:12:15.390Z,87.90
2018-07-02T03:13:19.493Z,88.20
2018-07-02T03:14:23.636Z,88.50
2018-07-02T03:15:27.699Z,88.40
2018-07-02T03:16:31.763Z,88.50
2018-07-02T03:17:35.881Z,88.80
2018-07-02T03:18:39.998Z,88.80
2018-07-02T03:19:44.087Z,88.90
2018-07-02T03:20:48.276Z,88.80
2018-07-02T03:21:52.365Z,89.00
2018-07-02T03:22:56.451Z,88.80
2018-07-02T03:24:00.552Z,89.10
2018-07-02T03:25:04.804Z,89.00
2018-07-02T03:26:08.941Z,89.30
2018-07-02T03:27:13.019Z,89.20
2018-07-02T03:28:17.037Z,89.20
2018-07-02T03:29:21.098Z,89.10
2018-07-02T03:30:25.341Z,89.20
2018-07-02T03:31:29.303Z,89.50
2018-07-02T03:32:33.390Z,89.50
2018-07-02T03:33:37.400Z,89.80
2018-07-02T03:34:41.436Z,89.90
2018-07-02T03:35:45.508Z,90.00
2018-07-02T03:36:49.566Z,90.00
2018-07-02T03:37:53.808Z,90.00
2018-07-02T03:38:58.170Z,90.20
2018-07-02T03:40:02.251Z,90.30
2018-07-02T03:41:06.303Z,90.40
2018-07-02T03:42:10.469Z,90.60
2018-07-02T03:43:14.528Z,90.40
2018-07-02T03:44:18.592Z,90.60
2018-07-02T03:45:22.704Z,90.40
2018-07-02T03:46:26.749Z,90.40
2018-07-02T03:47:30.833Z,90.30
2018-07-02T03:48:34.880Z,90.20
2018-07-02T03:49:38.934Z,90.10
2018-07-02T03:50:43.047Z,90.20
2018-07-02T03:51:47.053Z,90.20
2018-07-02T03:53:55.045Z,90.50
2018-07-02T03:54:59.218Z,90.40
2018-07-02T03:56:03.296Z,90.60
2018-07-02T03:57:07.463Z,90.70
2018-07-02T03:58:11.611Z,90.80
2018-07-02T03:59:15.687Z,91.00
2018-07-02T04:00:19.758Z,91.00
2018-07-02T04:01:23.935Z,91.00
2018-07-02T04:02:28.035Z,90.80
2018-07-02T04:03:32.427Z,90.70
2018-07-02T04:04:36.640Z,90.80
2018-07-02T04:05:40.729Z,91.00
2018-07-02T04:06:44.870Z,90.90
2018-07-02T04:07:48.899Z,90.80
2018-07-02T04:08:53.026Z,90.80
2018-07-02T04:09:57.279Z,90.70
2018-07-02T04:11:01.350Z,90.70
2018-07-02T04:12:05.446Z,90.90
2018-07-02T04:14:13.155Z,91.10
2018-07-02T04:15:17.202Z,91.10
2018-07-02T04:16:21.412Z,91.10
2018-07-02T04:17:25.788Z,91.10
2018-07-02T04:18:29.919Z,91.00
2018-07-02T04:19:33.999Z,90.90
2018-07-02T04:20:38.070Z,90.70
2018-07-02T04:21:43.156Z,91.10
2018-07-02T04:22:47.557Z,91.00
2018-07-02T04:23:51.839Z,91.40
2018-07-02T04:24:56.282Z,91.50
2018-07-02T04:27:04.116Z,91.10
2018-07-02T04:28:08.198Z,91.60
2018-07-02T04:29:12.339Z,90.90
2018-07-02T04:30:16.465Z,90.80
2018-07-02T04:31:20.585Z,90.80
2018-07-02T04:32:24.792Z,90.70
2018-07-02T04:33:28.942Z,90.30
2018-07-02T04:35:36.769Z,90.10
2018-07-02T04:36:40.947Z,90.10
2018-07-02T04:37:45.000Z,90.20
2018-07-02T04:38:49.289Z,90.20
2018-07-02T04:39:53.355Z,90.00
2018-07-02T04:40:57.388Z,90.00
2018-07-02T04:42:01.503Z,89.40
2018-07-02T04:43:05.894Z,89.20
2018-07-02T04:44:09.959Z,89.30
2018-07-02T04:46:17.811Z,88.10
2018-07-02T04:47:21.822Z,87.50
2018-07-02T04:48:25.862Z,87.90
2018-07-02T04:50:33.614Z,89.30
2018-07-02T04:51:37.706Z,89.40
2018-07-02T04:52:41.790Z,88.20
2018-07-02T04:53:45.775Z,88.40
2018-07-02T04:54:49.871Z,87.70
2018-07-02T04:55:53.890Z,87.50
2018-07-02T04:56:57.956Z,87.20
2018-07-02T04:58:02.226Z,87.40
2018-07-02T04:59:06.340Z,86.50
2018-07-02T05:00:10.483Z,85.90
2018-07-02T05:01:14.563Z,86.70
2018-07-02T05:02:18.713Z,86.20
2018-07-02T05:03:22.690Z,85.80
2018-07-02T05:05:30.367Z,85.40
2018-07-02T05:06:34.409Z,85.40
2018-07-02T05:07:38.487Z,85.00
2018-07-02T05:08:42.502Z,84.70
2018-07-02T05:09:46.565Z,85.10
2018-07-02T05:10:50.639Z,84.80
2018-07-02T05:11:54.702Z,84.80
2018-07-02T05:12:58.690Z,85.70
2018-07-02T05:14:02.774Z,85.70
2018-07-02T05:15:07.051Z,85.40
2018-07-02T05:16:11.147Z,85.70
2018-07-02T05:17:15.221Z,86.10
2018-07-02T05:19:23.047Z,85.10
2018-07-02T05:20:26.911Z,85.50
2018-07-02T05:21:31.003Z,85.00
2018-07-02T05:22:35.057Z,84.80
2018-07-02T05:23:39.074Z,84.60
2018-07-02T05:24:43.211Z,84.80
2018-07-02T05:25:47.307Z,84.80
2018-07-02T05:26:51.669Z,84.20
2018-07-02T05:27:55.818Z,84.20
2018-07-02T05:28:59.922Z,84.10
2018-07-02T05:30:04.100Z,84.20
2018-07-02T05:31:08.135Z,84.70
2018-07-02T05:32:12.297Z,84.80
2018-07-02T05:33:16.332Z,84.70
2018-07-02T05:34:20.446Z,84.60
2018-07-02T05:35:24.630Z,85.10
2018-07-02T05:36:28.852Z,85.10
2018-07-02T05:37:32.946Z,85.10
2018-07-02T05:38:37.012Z,85.10
2018-07-02T05:39:41.018Z,85.30
2018-07-02T05:40:45.073Z,85.50
2018-07-02T05:42:52.771Z,85.30
2018-07-02T05:43:56.834Z,85.20
2018-07-02T05:45:00.905Z,85.10
2018-07-02T05:46:04.949Z,84.40
2018-07-02T05:47:09.046Z,83.80
2018-07-02T05:48:13.153Z,83.10
2018-07-02T05:49:17.228Z,83.40
2018-07-02T05:50:21.363Z,83.70
2018-07-02T05:51:25.489Z,82.50
2018-07-02T05:53:33.172Z,83.00
2018-07-02T05:54:37.204Z,82.90
2018-07-02T05:55:41.220Z,82.20
2018-07-02T05:56:45.951Z,81.80
2018-07-02T05:57:50.137Z,82.10
2018-07-02T05:58:54.292Z,82.20
2018-07-02T05:59:58.534Z,82.00
2018-07-02T06:01:02.732Z,82.20
2018-07-02T06:02:06.959Z,82.40
2018-07-02T06:03:10.971Z,82.30
2018-07-02T06:04:15.020Z,82.30
2018-07-02T06:05:19.266Z,82.20
2018-07-02T06:06:23.381Z,82.60
2018-07-02T06:07:27.429Z,82.80
2018-07-02T06:08:31.499Z,82.50
2018-07-02T06:09:35.498Z,81.50
2018-07-02T06:10:39.567Z,81.50
2018-07-02T06:11:43.591Z,81.50
2018-07-02T06:12:47.673Z,81.50
2018-07-02T06:13:51.712Z,81.50
2018-07-02T06:14:55.938Z,82.10
2018-07-02T06:16:00.058Z,81.60
2018-07-02T06:17:04.155Z,82.00
2018-07-02T06:18:08.435Z,82.60
2018-07-02T06:19:12.524Z,81.90
2018-07-02T06:20:16.526Z,81.50
2018-07-02T06:21:20.579Z,81.60
2018-07-02T06:22:24.615Z,81.20
2018-07-02T06:23:28.989Z,81.60
2018-07-02T06:24:33.189Z,81.90
2018-07-02T06:25:37.322Z,82.00
2018-07-02T06:26:41.389Z,82.10
2018-07-02T06:27:45.455Z,82.40
2018-07-02T06:28:49.589Z,82.70
2018-07-02T06:29:53.610Z,83.30
2018-07-02T06:30:57.660Z,82.70
2018-07-02T06:32:01.743Z,82.40
2018-07-02T06:33:05.821Z,82.00
2018-07-02T06:34:09.916Z,81.60
2018-07-02T06:35:13.966Z,81.30
2018-07-02T06:36:18.064Z,81.90
2018-07-02T06:37:22.243Z,82.00
2018-07-02T06:38:26.281Z,82.20
2018-07-02T06:39:30.490Z,82.40
2018-07-02T06:40:34.561Z,82.50
2018-07-02T06:41:38.879Z,82.80
2018-07-02T06:43:46.565Z,83.10
2018-07-02T06:44:50.588Z,83.40
2018-07-02T06:45:54.648Z,83.90
2018-07-02T06:46:58.745Z,83.50
2018-07-02T06:48:02.939Z,84.00
2018-07-02T06:49:07.006Z,83.50
2018-07-02T06:50:11.102Z,83.40
2018-07-02T06:51:15.210Z,83.20
2018-07-02T06:52:19.481Z,83.40
2018-07-02T06:53:23.555Z,83.80
2018-07-02T06:54:27.623Z,83.40
2018-07-02T06:55:31.718Z,83.40
2018-07-02T06:56:35.777Z,83.50
2018-07-02T06:57:39.982Z,83.40
2018-07-02T06:58:44.071Z,83.70
2018-07-02T06:59:48.099Z,83.20
2018-07-02T07:01:55.923Z,83.80
2018-07-02T07:03:00.143Z,83.70
2018-07-02T07:04:04.249Z,84.40
2018-07-02T07:05:08.326Z,83.60
2018-07-02T07:06:12.431Z,82.80
2018-07-02T07:07:16.480Z,82.20
2018-07-02T07:08:20.601Z,81.70
2018-07-02T07:09:24.639Z,81.40
2018-07-02T07:10:28.662Z,82.20
2018-07-02T07:11:32.840Z,82.10
2018-07-02T07:12:36.979Z,82.40
2018-07-02T07:13:41.025Z,82.80
2018-07-02T07:15:48.808Z,83.30
2018-07-02T07:16:52.914Z,81.90
2018-07-02T07:19:00.621Z,82.30
2018-07-02T07:20:05.310Z,82.30
2018-07-02T07:21:09.442Z,82.40
2018-07-02T07:22:13.564Z,82.00
2018-07-02T07:23:17.735Z,81.70
2018-07-02T07:24:22.106Z,81.70
2018-07-02T07:25:26.172Z,80.90
2018-07-02T07:26:30.231Z,80.90
2018-07-02T07:27:34.363Z,81.40
2018-07-02T07:28:38.409Z,81.00
2018-07-02T07:29:42.535Z,81.20
2018-07-02T07:30:46.922Z,81.20
2018-07-02T07:31:51.003Z,80.30
2018-07-02T07:32:55.156Z,79.70
2018-07-02T07:33:59.422Z,79.90
2018-07-02T07:35:03.535Z,80.10
2018-07-02T07:36:07.645Z,79.90
2018-07-02T07:37:11.732Z,79.60
2018-07-02T07:38:15.716Z,78.70
2018-07-02T07:39:19.818Z,78.10
2018-07-02T07:40:23.847Z,78.20
2018-07-02T07:41:27.917Z,78.40
2018-07-02T07:42:32.292Z,78.30
2018-07-02T07:43:36.302Z,78.20
2018-07-02T07:44:40.320Z,78.50
2018-07-02T07:45:44.351Z,78.70
2018-07-02T07:46:48.383Z,78.30
2018-07-02T07:47:52.464Z,78.20
2018-07-02T07:48:56.531Z,77.20
2018-07-02T07:50:00.660Z,77.20
2018-07-02T07:52:08.364Z,76.40
2018-07-02T07:53:12.514Z,76.30
2018-07-02T07:54:16.523Z,76.00
2018-07-02T07:55:20.535Z,75.50
2018-07-02T07:56:24.563Z,75.30
2018-07-02T07:57:28.598Z,75.80
2018-07-02T07:58:32.773Z,76.70
2018-07-02T07:59:36.871Z,76.10
2018-07-02T08:00:40.924Z,76.40
2018-07-02T08:01:45.048Z,77.00
2018-07-02T08:02:49.116Z,76.30
2018-07-02T08:03:53.207Z,75.00
2018-07-02T08:04:57.309Z,74.90
2018-07-02T08:06:01.347Z,74.30
2018-07-02T08:07:05.406Z,74.00
2018-07-02T08:08:09.448Z,74.00
2018-07-02T08:09:13.968Z,73.50
2018-07-02T08:10:18.082Z,73.70
2018-07-02T08:11:22.067Z,73.00
2018-07-02T08:12:26.124Z,73.20
2018-07-02T08:13:30.173Z,73.60
2018-07-02T08:14:34.195Z,73.80
2018-07-02T08:15:38.273Z,73.50
2018-07-02T08:16:42.315Z,73.40
2018-07-02T08:17:46.423Z,73.10
2018-07-02T08:18:50.534Z,72.90
2018-07-02T08:19:54.523Z,72.10
2018-07-02T08:20:58.543Z,71.40
2018-07-02T08:22:02.575Z,71.80
2018-07-02T08:23:06.746Z,71.50
2018-07-02T08:24:10.724Z,71.80
2018-07-02T08:25:14.729Z,70.50
2018-07-02T08:26:18.875Z,70.40
2018-07-02T08:27:22.922Z,70.00
2018-07-02T08:28:26.978Z,69.80
2018-07-02T08:29:31.006Z,70.50
2018-07-02T08:30:35.028Z,70.60
2018-07-02T08:31:39.161Z,70.40
2018-07-02T08:32:43.165Z,70.00
2018-07-02T08:33:47.162Z,69.80
2018-07-02T08:34:51.359Z,70.10
2018-07-02T08:35:55.575Z,70.50
2018-07-02T08:36:59.725Z,70.70
2018-07-02T08:38:04.110Z,70.20
2018-07-02T08:39:10.586Z,69.60
2018-07-02T08:40:14.647Z,69.60
2018-07-02T08:41:18.681Z,69.40
2018-07-02T08:42:22.773Z,69.20
2018-07-02T08:43:26.820Z,68.80
2018-07-02T08:44:30.976Z,67.60
2018-07-02T08:45:35.042Z,66.80
2018-07-02T08:46:39.132Z,66.60
2018-07-02T08:47:43.119Z,67.20
2018-07-02T08:48:47.183Z,66.20
2018-07-02T08:49:51.332Z,65.70
2018-07-02T08:50:55.414Z,66.40
2018-07-02T08:51:59.463Z,66.70
2018-07-02T08:53:03.499Z,65.80
2018-07-02T08:54:07.570Z,65.80
2018-07-02T08:55:11.621Z,66.10
2018-07-02T08:56:15.635Z,66.00
2018-07-02T08:57:19.863Z,66.00
2018-07-02T08:58:23.927Z,66.40
2018-07-02T08:59:27.954Z,66.90
2018-07-02T09:00:31.972Z,66.50
2018-07-02T09:01:36.007Z,66.10
2018-07-02T09:02:40.083Z,66.40
2018-07-02T09:03:44.102Z,65.90
2018-07-02T09:04:48.177Z,64.70
2018-07-02T09:05:52.245Z,65.00
2018-07-02T09:06:56.456Z,65.10
2018-07-02T09:08:00.427Z,63.90
2018-07-02T09:09:07.985Z,64.30
2018-07-02T09:10:12.012Z,64.50
2018-07-02T09:11:16.040Z,64.20
2018-07-02T09:12:20.315Z,64.50
2018-07-02T09:13:24.631Z,64.00
2018-07-02T09:14:28.683Z,64.40
2018-07-02T09:15:32.936Z,64.10
2018-07-02T09:16:37.030Z,63.50
2018-07-02T09:17:41.180Z,63.30
2018-07-02T09:18:45.118Z,62.90
2018-07-02T09:19:49.748Z,63.70
2018-07-02T09:20:53.782Z,63.80
2018-07-02T09:21:57.814Z,64.00
2018-07-02T09:23:01.920Z,63.70
2018-07-02T09:24:05.933Z,63.60
2018-07-02T09:25:09.995Z,63.70
2018-07-02T09:26:13.994Z,64.10
2018-07-02T09:27:18.262Z,64.10
2018-07-02T09:28:22.379Z,64.10
2018-07-02T09:29:26.514Z,64.10
2018-07-02T09:30:30.578Z,63.70
2018-07-02T09:31:34.668Z,63.10
2018-07-02T09:32:38.796Z,63.00
2018-07-02T09:33:42.715Z,63.00
2018-07-02T09:34:46.771Z,62.90
2018-07-02T09:35:50.832Z,62.40
2018-07-02T09:36:55.176Z,62.20
2018-07-02T09:37:59.368Z,62.20
2018-07-02T09:39:04.742Z,62.70
2018-07-02T09:40:08.819Z,62.80
2018-07-02T09:41:13.247Z,63.00
2018-07-02T09:42:17.288Z,63.70
2018-07-02T09:43:21.487Z,63.90
2018-07-02T09:44:25.545Z,64.40
2018-07-02T09:45:29.643Z,64.90
2018-07-02T09:46:33.704Z,64.90
2018-07-02T09:47:37.704Z,64.80
2018-07-02T09:48:41.833Z,65.20
2018-07-02T09:49:45.869Z,65.60
2018-07-02T09:50:49.947Z,64.70
2018-07-02T09:51:54.061Z,64.60
2018-07-02T09:52:58.154Z,64.00
2018-07-02T09:54:02.391Z,62.60
2018-07-02T09:55:06.471Z,62.60
2018-07-02T09:56:10.551Z,63.10
2018-07-02T09:57:14.606Z,62.90
2018-07-02T09:58:18.634Z,63.90
2018-07-02T09:59:22.657Z,63.90
2018-07-02T10:00:26.928Z,63.70
2018-07-02T10:01:31.378Z,61.90
2018-07-02T10:02:35.416Z,61.20
2018-07-02T10:03:39.453Z,61.00
2018-07-02T10:04:43.549Z,61.40
2018-07-02T10:05:47.567Z,60.40
2018-07-02T10:06:51.654Z,60.50
2018-07-02T10:08:59.356Z,60.50
2018-07-02T10:10:03.499Z,60.50
2018-07-02T10:11:07.494Z,60.90
2018-07-02T10:12:11.606Z,60.70
2018-07-02T10:13:15.665Z,61.20
2018-07-02T10:14:19.729Z,61.60
2018-07-02T10:15:23.748Z,61.80
2018-07-02T10:16:27.874Z,61.30
2018-07-02T10:17:31.894Z,61.40
2018-07-02T10:18:35.939Z,61.60
2018-07-02T10:19:39.961Z,62.00
2018-07-02T10:20:44.046Z,60.70
2018-07-02T10:21:48.030Z,60.40
2018-07-02T10:22:52.219Z,60.60
2018-07-02T10:23:56.367Z,62.30
2018-07-02T10:25:00.363Z,61.70
2018-07-02T10:26:04.453Z,61.60
2018-07-02T10:27:08.469Z,62.20
2018-07-02T10:28:12.626Z,61.70
2018-07-02T10:29:16.799Z,61.90
2018-07-02T10:30:20.812Z,60.30
2018-07-02T10:31:25.005Z,60.70
2018-07-02T10:32:28.946Z,59.70
2018-07-02T10:33:32.946Z,59.50
2018-07-02T10:34:36.999Z,60.10
2018-07-02T10:35:41.126Z,60.60
2018-07-02T10:36:45.143Z,60.90
2018-07-02T10:37:49.231Z,61.20
2018-07-02T10:38:53.351Z,62.30
2018-07-02T10:41:01.086Z,60.80
2018-07-02T10:42:05.213Z,60.40
2018-07-02T10:43:09.269Z,60.40
2018-07-02T10:44:13.324Z,60.10
2018-07-02T10:45:17.374Z,59.90
2018-07-02T10:46:21.418Z,59.90
2018-07-02T10:47:25.522Z,60.40
2018-07-02T10:48:29.550Z,60.80
2018-07-02T10:49:33.692Z,61.30
2018-07-02T10:50:37.734Z,61.10
2018-07-02T10:51:41.766Z,61.30
2018-07-02T10:52:45.789Z,60.40
2018-07-02T10:53:49.873Z,59.60
2018-07-02T10:54:53.937Z,61.00
2018-07-02T10:55:58.122Z,59.80
2018-07-02T10:57:02.262Z,59.30
2018-07-02T10:58:06.523Z,59.30
2018-07-02T10:59:10.630Z,59.10
2018-07-02T11:00:14.804Z,58.80
2018-07-02T11:01:18.844Z,58.80
2018-07-02T11:02:22.871Z,58.90
2018-07-02T11:03:26.912Z,58.50
2018-07-02T11:04:30.970Z,59.00
2018-07-02T11:05:35.014Z,58.50
2018-07-02T11:06:39.240Z,58.50
2018-07-02T11:07:43.271Z,58.10
2018-07-02T11:08:47.350Z,58.20
2018-07-02T11:09:51.498Z,58.00
2018-07-02T11:10:55.768Z,58.50
2018-07-02T11:11:59.896Z,57.60
2018-07-02T11:13:10.152Z,58.20
2018-07-02T11:14:14.564Z,58.40
2018-07-02T11:15:18.610Z,58.60
2018-07-02T11:16:22.851Z,58.40
2018-07-02T11:17:26.913Z,58.00
2018-07-02T11:18:30.972Z,58.00
2018-07-02T11:19:35.028Z,57.00
2018-07-02T11:20:40.259Z,57.80
2018-07-02T11:21:44.404Z,58.80
2018-07-02T11:22:48.469Z,57.40
2018-07-02T11:23:52.523Z,56.20
2018-07-02T11:24:56.580Z,56.90
2018-07-02T11:26:00.612Z,58.00
2018-07-02T11:27:04.902Z,57.50
2018-07-02T11:28:09.003Z,57.50
2018-07-02T11:29:13.030Z,57.40
2018-07-02T11:30:17.046Z,57.40
2018-07-02T11:31:21.099Z,57.50
2018-07-02T11:32:25.132Z,58.40
2018-07-02T11:33:29.316Z,58.10
2018-07-02T11:34:33.414Z,57.50
2018-07-02T11:35:37.402Z,56.80
2018-07-02T11:36:41.728Z,57.00
2018-07-02T11:37:45.801Z,57.70
2018-07-02T11:38:49.886Z,57.30
2018-07-02T11:39:53.968Z,57.10
2018-07-02T11:40:58.130Z,56.60
2018-07-02T11:42:02.299Z,57.00
2018-07-02T11:43:06.365Z,57.00
2018-07-02T11:44:10.429Z,57.30
2018-07-02T11:45:14.482Z,56.70
2018-07-02T11:46:18.602Z,56.00
2018-07-02T11:47:22.740Z,55.70
2018-07-02T11:48:26.780Z,55.80
2018-07-02T11:49:30.874Z,55.60
2018-07-02T11:50:34.905Z,55.70
2018-07-02T11:51:39.019Z,56.40
2018-07-02T11:52:43.128Z,56.60
2018-07-02T11:53:47.186Z,56.70
2018-07-02T11:54:51.221Z,56.80
2018-07-02T11:55:55.339Z,56.50
2018-07-02T11:56:59.463Z,56.70
2018-07-02T11:58:03.648Z,56.40
2018-07-02T11:59:07.740Z,55.60
2018-07-02T12:00:11.834Z,55.90
2018-07-02T12:01:15.888Z,56.30
2018-07-02T12:02:20.099Z,55.90
2018-07-02T12:03:24.207Z,55.50
2018-07-02T12:04:28.359Z,55.80
2018-07-02T12:05:32.464Z,55.70
2018-07-02T12:06:36.612Z,56.80
2018-07-02T12:07:40.765Z,56.00
2018-07-02T12:08:44.910Z,55.50
2018-07-02T12:09:49.226Z,55.40
2018-07-02T12:10:53.258Z,55.60
2018-07-02T12:11:57.339Z,55.70
2018-07-02T12:13:01.541Z,55.60
2018-07-02T12:14:05.563Z,55.50
2018-07-02T12:15:09.661Z,55.90
2018-07-02T12:16:13.772Z,55.10
2018-07-02T12:17:17.763Z,54.50
2018-07-02T12:18:21.799Z,54.30
2018-07-02T12:19:25.843Z,54.00
2018-07-02T12:20:29.911Z,54.10
2018-07-02T12:21:34.644Z,54.70
2018-07-02T12:22:38.798Z,55.70
2018-07-02T12:23:43.032Z,54.70
2018-07-02T12:24:47.103Z,54.50
2018-07-02T12:25:51.207Z,54.20
2018-07-02T12:28:05.855Z,54.30
2018-07-02T12:29:10.005Z,53.90
2018-07-02T12:30:14.200Z,53.90
2018-07-02T12:31:18.205Z,53.50
2018-07-02T12:33:26.168Z,54.70
2018-07-02T12:34:30.363Z,52.60
2018-07-02T12:35:34.517Z,52.60
2018-07-02T12:36:38.685Z,53.00
2018-07-02T12:37:42.730Z,52.40
2018-07-02T12:39:50.440Z,52.50
2018-07-02T12:40:54.612Z,52.20
2018-07-02T12:41:58.695Z,52.10
2018-07-02T12:43:02.768Z,52.60
2018-07-02T12:44:06.838Z,51.40
2018-07-02T12:45:10.898Z,51.80
2018-07-02T12:46:14.941Z,51.70
2018-07-02T12:47:19.061Z,51.90
2018-07-02T12:48:23.181Z,51.70
2018-07-02T12:49:27.248Z,50.80
2018-07-02T12:50:31.488Z,50.60
2018-07-02T12:51:35.519Z,50.30
2018-07-02T12:52:39.555Z,50.00
2018-07-02T12:53:43.726Z,49.70
2018-07-02T12:54:47.828Z,49.70
2018-07-02T12:55:51.986Z,49.50
2018-07-02T12:56:56.035Z,50.00
2018-07-02T12:58:00.068Z,49.80
2018-07-02T12:59:04.170Z,50.50
2018-07-02T13:01:12.230Z,49.80
2018-07-02T13:02:16.324Z,48.90
2018-07-02T13:03:20.344Z,48.20
2018-07-02T13:04:24.391Z,48.50
2018-07-02T13:05:28.542Z,48.90
2018-07-02T13:06:32.626Z,48.90
2018-07-02T13:07:36.652Z,48.40
2018-07-02T13:08:40.767Z,48.70
2018-07-02T13:09:44.863Z,48.40
2018-07-02T13:10:48.996Z,47.90
2018-07-02T13:11:53.336Z,47.80
2018-07-02T13:12:57.357Z,47.60
2018-07-02T13:14:01.417Z,47.20
2018-07-02T13:15:06.031Z,47.60
2018-07-02T13:16:10.132Z,48.60
2018-07-02T13:17:14.206Z,47.90
2018-07-02T13:18:18.247Z,47.10
2018-07-02T13:19:22.370Z,48.20
2018-07-02T13:20:26.625Z,47.40
2018-07-02T13:21:30.651Z,46.90
2018-07-02T13:22:34.733Z,47.70
2018-07-02T13:23:38.843Z,47.80
2018-07-02T13:24:42.973Z,47.90
2018-07-02T13:25:47.052Z,48.40
2018-07-02T13:26:51.174Z,47.90
2018-07-02T13:27:55.211Z,46.60
2018-07-02T13:28:59.323Z,45.60
2018-07-02T13:30:03.397Z,45.50
2018-07-02T13:31:07.432Z,46.20
2018-07-02T13:32:11.596Z,46.30
2018-07-02T13:33:15.663Z,46.10
2018-07-02T13:35:23.408Z,45.70
2018-07-02T13:36:27.495Z,46.20
2018-07-02T13:37:31.507Z,45.80
2018-07-02T13:38:35.586Z,45.80
2018-07-02T13:39:39.612Z,45.30
2018-07-02T13:40:43.852Z,45.30
2018-07-02T13:41:48.014Z,45.30
2018-07-02T13:42:52.047Z,44.60
2018-07-02T13:43:56.099Z,44.30
2018-07-02T13:45:00.313Z,44.30
2018-07-02T13:46:04.730Z,43.90
2018-07-02T13:47:08.871Z,44.10
2018-07-02T13:48:12.961Z,44.10
2018-07-02T13:49:17.094Z,43.70
2018-07-02T13:50:21.160Z,43.10
2018-07-02T13:51:25.164Z,42.50
2018-07-02T13:52:29.235Z,42.90
2018-07-02T13:53:33.291Z,42.60
2018-07-02T13:54:37.336Z,42.50
2018-07-02T13:55:41.360Z,42.30
2018-07-02T13:56:45.419Z,42.90
2018-07-02T13:57:49.443Z,42.70
2018-07-02T13:58:53.659Z,42.20
2018-07-02T13:59:57.875Z,42.60
2018-07-02T14:01:02.041Z,42.40
2018-07-02T14:02:06.138Z,42.30
2018-07-02T14:03:10.172Z,42.10
2018-07-02T14:04:14.223Z,42.30
2018-07-02T14:05:18.487Z,42.00
2018-07-02T14:06:22.618Z,42.30
2018-07-02T14:07:26.709Z,42.40
2018-07-02T14:08:30.915Z,42.60
2018-07-02T14:09:35.106Z,43.10
2018-07-02T14:10:39.262Z,42.70
2018-07-02T14:11:43.366Z,42.90
2018-07-02T14:12:47.500Z,43.20